sensor_id;sensor_type;location;lat;lon;timestamp;P1;durP1;ratioP1;P2;durP2;ratioP2
78750;SDS011;68070;50.954;11.060;2023-05-01T00:00:41;5.70;;;3.10;;
78750;SDS011;68070;50.954;11.060;2023-05-01T00:03:26;6.30;;;2.90;;
78750;SDS011;68070;50.954;11.060;2023-05-01T00:06:10;8.30;;;3.30;;
78750;SDS011;68070;50.954;11.060;2023-05-01T00:08:55;7.60;;;3.30;;
78750;SDS011;68070;50.954;11.060;2023-05-01T00:11:39;7.90;;;4.00;;
78750;SDS011;68070;50.954;11.060;2023-05-01T00:14:24;6.40;;;3.80;;
78750;SDS011;68070;50.954;11.060;2023-05-01T00:17:08;6.80;;;3.60;;
78750;SDS011;68070;50.954;11.060;2023-05-01T00:19:53;6.10;;;3.60;;
78750;SDS011;68070;50.954;11.060;2023-05-01T00:22:37;6.40;;;3.30;;
78750;SDS011;68070;50.954;11.060;2023-05-01T00:25:21;6.60;;;3.00;;
78750;SDS011;68070;50.954;11.060;2023-05-01T00:28:05;7.00;;;4.10;;
78750;SDS011;68070;50.954;11.060;2023-05-01T00:30:50;7.70;;;4.10;;
78750;SDS011;68070;50.954;11.060;2023-05-01T00:33:35;9.30;;;3.80;;
78750;SDS011;68070;50.954;11.060;2023-05-01T00:36:19;6.40;;;3.50;;
78750;SDS011;68070;50.954;11.060;2023-05-01T00:39:04;6.80;;;3.60;;
78750;SDS011;68070;50.954;11.060;2023-05-01T00:41:50;7.30;;;2.90;;
78750;SDS011;68070;50.954;11.060;2023-05-01T00:44:35;5.90;;;4.00;;
78750;SDS011;68070;50.954;11.060;2023-05-01T00:47:19;8.20;;;3.70;;
78750;SDS011;68070;50.954;11.060;2023-05-01T00:50:04;8.30;;;4.20;;
78750;SDS011;68070;50.954;11.060;2023-05-01T00:52:49;8.70;;;3.30;;
78750;SDS011;68070;50.954;11.060;2023-05-01T00:55:33;9.60;;;3.90;;
78750;SDS011;68070;50.954;11.060;2023-05-01T00:58:18;5.40;;;3.50;;
78750;SDS011;68070;50.954;11.060;2023-05-01T01:01:03;10.00;;;4.10;;
78750;SDS011;68070;50.954;11.060;2023-05-01T01:03:48;4.50;;;3.90;;
78750;SDS011;68070;50.954;11.060;2023-05-01T01:13:09;6.40;;;2.80;;
78750;SDS011;68070;50.954;11.060;2023-05-01T01:22:32;6.70;;;4.30;;
78750;SDS011;68070;50.954;11.060;2023-05-01T01:25:32;6.20;;;3.90;;
78750;SDS011;68070;50.954;11.060;2023-05-01T01:37:41;3.80;;;2.50;;
78750;SDS011;68070;50.954;11.060;2023-05-01T01:40:38;5.70;;;2.60;;
78750;SDS011;68070;50.954;11.060;2023-05-01T01:43:31;6.40;;;3.90;;
78750;SDS011;68070;50.954;11.060;2023-05-01T01:46:22;7.30;;;4.30;;
78750;SDS011;68070;50.954;11.060;2023-05-01T01:49:10;8.80;;;4.70;;
78750;SDS011;68070;50.954;11.060;2023-05-01T01:52:01;6.10;;;3.80;;
78750;SDS011;68070;50.954;11.060;2023-05-01T01:54:56;7.40;;;4.20;;
78750;SDS011;68070;50.954;11.060;2023-05-01T01:57:47;8.20;;;4.80;;
78750;SDS011;68070;50.954;11.060;2023-05-01T02:00:34;7.80;;;4.20;;
78750;SDS011;68070;50.954;11.060;2023-05-01T02:03:20;5.50;;;3.60;;
78750;SDS011;68070;50.954;11.060;2023-05-01T02:06:06;6.60;;;3.60;;
78750;SDS011;68070;50.954;11.060;2023-05-01T02:08:51;6.90;;;3.70;;
78750;SDS011;68070;50.954;11.060;2023-05-01T02:11:37;6.70;;;4.10;;
78750;SDS011;68070;50.954;11.060;2023-05-01T02:14:24;8.00;;;4.50;;
78750;SDS011;68070;50.954;11.060;2023-05-01T02:17:10;8.50;;;4.00;;
78750;SDS011;68070;50.954;11.060;2023-05-01T02:19:56;9.10;;;4.80;;
78750;SDS011;68070;50.954;11.060;2023-05-01T02:22:42;7.60;;;4.10;;
78750;SDS011;68070;50.954;11.060;2023-05-01T02:25:29;9.40;;;4.20;;
78750;SDS011;68070;50.954;11.060;2023-05-01T02:28:20;10.00;;;5.00;;
78750;SDS011;68070;50.954;11.060;2023-05-01T02:31:08;10.40;;;4.60;;
78750;SDS011;68070;50.954;11.060;2023-05-01T02:33:53;10.90;;;5.30;;
78750;SDS011;68070;50.954;11.060;2023-05-01T02:39:22;5.40;;;3.40;;
78750;SDS011;68070;50.954;11.060;2023-05-01T02:42:07;8.20;;;4.10;;
78750;SDS011;68070;50.954;11.060;2023-05-01T02:44:58;8.00;;;4.90;;
78750;SDS011;68070;50.954;11.060;2023-05-01T02:47:47;9.50;;;4.60;;
78750;SDS011;68070;50.954;11.060;2023-05-01T02:50:34;10.50;;;4.90;;
78750;SDS011;68070;50.954;11.060;2023-05-01T02:53:23;11.90;;;5.80;;
78750;SDS011;68070;50.954;11.060;2023-05-01T02:56:11;9.50;;;5.40;;
78750;SDS011;68070;50.954;11.060;2023-05-01T02:58:55;6.80;;;3.90;;
78750;SDS011;68070;50.954;11.060;2023-05-01T03:01:40;9.30;;;4.70;;
78750;SDS011;68070;50.954;11.060;2023-05-01T03:04:25;9.00;;;5.40;;
78750;SDS011;68070;50.954;11.060;2023-05-01T03:07:10;10.10;;;5.50;;
78750;SDS011;68070;50.954;11.060;2023-05-01T03:09:54;11.10;;;5.70;;
78750;SDS011;68070;50.954;11.060;2023-05-01T03:12:38;7.60;;;4.30;;
78750;SDS011;68070;50.954;11.060;2023-05-01T03:15:23;12.20;;;5.00;;
78750;SDS011;68070;50.954;11.060;2023-05-01T03:18:07;10.50;;;5.30;;
78750;SDS011;68070;50.954;11.060;2023-05-01T03:20:55;11.50;;;5.30;;
78750;SDS011;68070;50.954;11.060;2023-05-01T03:23:43;10.50;;;5.60;;
78750;SDS011;68070;50.954;11.060;2023-05-01T03:26:27;11.90;;;6.00;;
78750;SDS011;68070;50.954;11.060;2023-05-01T03:29:13;9.10;;;5.10;;
78750;SDS011;68070;50.954;11.060;2023-05-01T03:31:57;9.90;;;5.10;;
78750;SDS011;68070;50.954;11.060;2023-05-01T03:34:41;13.00;;;7.30;;
78750;SDS011;68070;50.954;11.060;2023-05-01T03:37:26;12.70;;;6.40;;
78750;SDS011;68070;50.954;11.060;2023-05-01T03:40:11;10.40;;;6.40;;
78750;SDS011;68070;50.954;11.060;2023-05-01T03:43:15;9.50;;;4.90;;
78750;SDS011;68070;50.954;11.060;2023-05-01T03:46:00;12.20;;;5.80;;
78750;SDS011;68070;50.954;11.060;2023-05-01T03:48:44;10.00;;;5.90;;
78750;SDS011;68070;50.954;11.060;2023-05-01T03:51:29;9.10;;;5.90;;
78750;SDS011;68070;50.954;11.060;2023-05-01T03:54:13;8.80;;;6.00;;
78750;SDS011;68070;50.954;11.060;2023-05-01T03:57:27;10.20;;;5.60;;
78750;SDS011;68070;50.954;11.060;2023-05-01T04:00:12;9.30;;;5.70;;
78750;SDS011;68070;50.954;11.060;2023-05-01T04:02:59;14.50;;;6.80;;
78750;SDS011;68070;50.954;11.060;2023-05-01T04:05:46;14.60;;;6.90;;
78750;SDS011;68070;50.954;11.060;2023-05-01T04:08:31;13.30;;;7.40;;
78750;SDS011;68070;50.954;11.060;2023-05-01T04:11:16;13.00;;;6.60;;
78750;SDS011;68070;50.954;11.060;2023-05-01T04:14:00;14.30;;;7.70;;
78750;SDS011;68070;50.954;11.060;2023-05-01T04:19:34;8.00;;;4.80;;
78750;SDS011;68070;50.954;11.060;2023-05-01T04:22:19;9.40;;;6.30;;
78750;SDS011;68070;50.954;11.060;2023-05-01T04:25:04;11.80;;;7.10;;
78750;SDS011;68070;50.954;11.060;2023-05-01T04:27:49;13.30;;;7.00;;
78750;SDS011;68070;50.954;11.060;2023-05-01T04:30:34;12.80;;;6.70;;
78750;SDS011;68070;50.954;11.060;2023-05-01T04:33:19;15.60;;;6.70;;
78750;SDS011;68070;50.954;11.060;2023-05-01T04:36:04;12.10;;;6.90;;
78750;SDS011;68070;50.954;11.060;2023-05-01T04:38:49;13.90;;;6.60;;
78750;SDS011;68070;50.954;11.060;2023-05-01T04:41:35;11.90;;;7.20;;
78750;SDS011;68070;50.954;11.060;2023-05-01T04:44:19;10.10;;;5.90;;
78750;SDS011;68070;50.954;11.060;2023-05-01T04:47:04;15.80;;;8.70;;
78750;SDS011;68070;50.954;11.060;2023-05-01T04:49:49;13.50;;;6.70;;
78750;SDS011;68070;50.954;11.060;2023-05-01T04:52:34;9.20;;;7.10;;
78750;SDS011;68070;50.954;11.060;2023-05-01T04:55:19;10.60;;;7.00;;
78750;SDS011;68070;50.954;11.060;2023-05-01T04:58:26;14.40;;;6.30;;
78750;SDS011;68070;50.954;11.060;2023-05-01T05:01:15;15.30;;;7.20;;
78750;SDS011;68070;50.954;11.060;2023-05-01T05:03:59;10.40;;;5.30;;
78750;SDS011;68070;50.954;11.060;2023-05-01T05:06:44;5.90;;;4.40;;
78750;SDS011;68070;50.954;11.060;2023-05-01T05:09:32;9.00;;;5.50;;
78750;SDS011;68070;50.954;11.060;2023-05-01T05:12:17;9.10;;;5.50;;
78750;SDS011;68070;50.954;11.060;2023-05-01T05:17:46;10.60;;;5.80;;
78750;SDS011;68070;50.954;11.060;2023-05-01T05:20:31;10.30;;;7.10;;
78750;SDS011;68070;50.954;11.060;2023-05-01T05:23:16;10.40;;;6.10;;
78750;SDS011;68070;50.954;11.060;2023-05-01T05:26:00;10.50;;;6.00;;
78750;SDS011;68070;50.954;11.060;2023-05-01T05:28:45;9.50;;;6.20;;
78750;SDS011;68070;50.954;11.060;2023-05-01T05:31:31;9.40;;;5.50;;
78750;SDS011;68070;50.954;11.060;2023-05-01T05:34:16;12.90;;;5.40;;
78750;SDS011;68070;50.954;11.060;2023-05-01T05:37:01;8.60;;;5.00;;
78750;SDS011;68070;50.954;11.060;2023-05-01T05:39:46;10.60;;;5.70;;
78750;SDS011;68070;50.954;11.060;2023-05-01T05:42:31;9.10;;;5.50;;
78750;SDS011;68070;50.954;11.060;2023-05-01T05:45:18;7.40;;;5.30;;
78750;SDS011;68070;50.954;11.060;2023-05-01T05:48:03;10.30;;;6.10;;
78750;SDS011;68070;50.954;11.060;2023-05-01T05:50:51;8.70;;;5.70;;
78750;SDS011;68070;50.954;11.060;2023-05-01T16:42:58;5.50;;;4.30;;
78750;SDS011;68070;50.954;11.060;2023-05-01T16:45:45;6.10;;;3.70;;
78750;SDS011;68070;50.954;11.060;2023-05-01T16:48:30;4.50;;;3.50;;
78750;SDS011;68070;50.954;11.060;2023-05-01T16:51:14;5.10;;;3.40;;
78750;SDS011;68070;50.954;11.060;2023-05-01T16:53:58;6.30;;;4.10;;
78750;SDS011;68070;50.954;11.060;2023-05-01T16:56:42;5.10;;;3.90;;
78750;SDS011;68070;50.954;11.060;2023-05-01T16:59:27;4.20;;;3.10;;
78750;SDS011;68070;50.954;11.060;2023-05-01T17:02:12;4.60;;;3.50;;
78750;SDS011;68070;50.954;11.060;2023-05-01T17:04:56;3.90;;;2.60;;
78750;SDS011;68070;50.954;11.060;2023-05-01T17:07:40;3.60;;;3.20;;
78750;SDS011;68070;50.954;11.060;2023-05-01T17:10:24;4.70;;;3.80;;
78750;SDS011;68070;50.954;11.060;2023-05-01T17:13:09;5.20;;;3.80;;
78750;SDS011;68070;50.954;11.060;2023-05-01T17:15:54;6.00;;;4.00;;
78750;SDS011;68070;50.954;11.060;2023-05-01T17:18:38;6.20;;;4.20;;
78750;SDS011;68070;50.954;11.060;2023-05-01T17:21:22;5.00;;;3.50;;
78750;SDS011;68070;50.954;11.060;2023-05-01T17:24:08;5.60;;;4.10;;
78750;SDS011;68070;50.954;11.060;2023-05-01T17:26:52;4.10;;;3.10;;
78750;SDS011;68070;50.954;11.060;2023-05-01T17:29:37;7.00;;;4.10;;
78750;SDS011;68070;50.954;11.060;2023-05-01T17:32:22;4.00;;;3.20;;
78750;SDS011;68070;50.954;11.060;2023-05-01T17:35:06;4.70;;;3.00;;
78750;SDS011;68070;50.954;11.060;2023-05-01T17:37:51;8.30;;;4.90;;
78750;SDS011;68070;50.954;11.060;2023-05-01T17:40:37;5.10;;;3.00;;
78750;SDS011;68070;50.954;11.060;2023-05-01T17:43:21;4.20;;;3.10;;
78750;SDS011;68070;50.954;11.060;2023-05-01T17:46:05;7.80;;;4.50;;
78750;SDS011;68070;50.954;11.060;2023-05-01T17:48:50;4.10;;;3.20;;
78750;SDS011;68070;50.954;11.060;2023-05-01T17:51:34;7.30;;;4.20;;
78750;SDS011;68070;50.954;11.060;2023-05-01T17:54:19;6.70;;;4.10;;
78750;SDS011;68070;50.954;11.060;2023-05-01T17:57:03;6.30;;;4.00;;
78750;SDS011;68070;50.954;11.060;2023-05-01T17:59:48;5.60;;;4.40;;
78750;SDS011;68070;50.954;11.060;2023-05-01T18:02:33;4.80;;;3.70;;
78750;SDS011;68070;50.954;11.060;2023-05-01T18:05:18;5.40;;;3.40;;
78750;SDS011;68070;50.954;11.060;2023-05-01T18:08:02;5.90;;;4.50;;
78750;SDS011;68070;50.954;11.060;2023-05-01T18:10:53;5.50;;;4.70;;
78750;SDS011;68070;50.954;11.060;2023-05-01T18:13:37;5.10;;;3.90;;
78750;SDS011;68070;50.954;11.060;2023-05-01T18:16:23;5.20;;;3.90;;
78750;SDS011;68070;50.954;11.060;2023-05-01T18:19:07;5.50;;;3.40;;
78750;SDS011;68070;50.954;11.060;2023-05-01T18:21:52;7.70;;;4.10;;
78750;SDS011;68070;50.954;11.060;2023-05-01T18:24:36;5.00;;;3.80;;
78750;SDS011;68070;50.954;11.060;2023-05-01T18:27:21;6.20;;;4.10;;
78750;SDS011;68070;50.954;11.060;2023-05-01T18:30:06;5.10;;;3.70;;
78750;SDS011;68070;50.954;11.060;2023-05-01T18:32:51;6.40;;;4.10;;
78750;SDS011;68070;50.954;11.060;2023-05-01T18:35:38;6.10;;;4.80;;
78750;SDS011;68070;50.954;11.060;2023-05-01T18:38:25;4.10;;;3.40;;
78750;SDS011;68070;50.954;11.060;2023-05-01T18:41:12;4.30;;;3.10;;
78750;SDS011;68070;50.954;11.060;2023-05-01T18:43:57;6.80;;;4.00;;
78750;SDS011;68070;50.954;11.060;2023-05-01T18:46:44;10.80;;;4.60;;
78750;SDS011;68070;50.954;11.060;2023-05-01T18:49:28;5.50;;;3.70;;
78750;SDS011;68070;50.954;11.060;2023-05-01T18:52:13;7.30;;;3.60;;
78750;SDS011;68070;50.954;11.060;2023-05-01T18:54:57;6.20;;;4.60;;
78750;SDS011;68070;50.954;11.060;2023-05-01T18:57:42;5.20;;;4.00;;
78750;SDS011;68070;50.954;11.060;2023-05-01T19:00:27;6.70;;;4.10;;
78750;SDS011;68070;50.954;11.060;2023-05-01T19:03:12;5.70;;;4.10;;
78750;SDS011;68070;50.954;11.060;2023-05-01T19:05:58;6.50;;;3.90;;
78750;SDS011;68070;50.954;11.060;2023-05-01T19:08:42;5.70;;;4.00;;
78750;SDS011;68070;50.954;11.060;2023-05-01T19:11:27;6.80;;;3.50;;
78750;SDS011;68070;50.954;11.060;2023-05-01T19:14:14;8.20;;;4.30;;
78750;SDS011;68070;50.954;11.060;2023-05-01T19:16:59;10.70;;;5.90;;
78750;SDS011;68070;50.954;11.060;2023-05-01T19:19:45;4.80;;;3.40;;
78750;SDS011;68070;50.954;11.060;2023-05-01T19:22:29;7.10;;;4.20;;
78750;SDS011;68070;50.954;11.060;2023-05-01T19:25:13;6.20;;;4.30;;
78750;SDS011;68070;50.954;11.060;2023-05-01T19:27:58;5.90;;;3.70;;
78750;SDS011;68070;50.954;11.060;2023-05-01T19:30:45;4.60;;;3.30;;
78750;SDS011;68070;50.954;11.060;2023-05-01T19:33:29;6.90;;;3.90;;
78750;SDS011;68070;50.954;11.060;2023-05-01T19:36:14;5.90;;;4.30;;
78750;SDS011;68070;50.954;11.060;2023-05-01T19:38:58;4.90;;;3.20;;
78750;SDS011;68070;50.954;11.060;2023-05-01T19:41:43;3.70;;;3.10;;
78750;SDS011;68070;50.954;11.060;2023-05-01T19:44:28;5.80;;;3.80;;
78750;SDS011;68070;50.954;11.060;2023-05-01T19:47:12;5.20;;;3.70;;
78750;SDS011;68070;50.954;11.060;2023-05-01T19:49:57;6.30;;;3.50;;
78750;SDS011;68070;50.954;11.060;2023-05-01T19:52:41;7.00;;;3.50;;
78750;SDS011;68070;50.954;11.060;2023-05-01T19:55:25;5.50;;;4.00;;
78750;SDS011;68070;50.954;11.060;2023-05-01T19:58:11;4.90;;;3.80;;
78750;SDS011;68070;50.954;11.060;2023-05-01T20:00:55;5.20;;;3.60;;
78750;SDS011;68070;50.954;11.060;2023-05-01T20:03:41;6.90;;;4.30;;
78750;SDS011;68070;50.954;11.060;2023-05-01T20:06:26;6.50;;;4.20;;
78750;SDS011;68070;50.954;11.060;2023-05-01T20:09:11;5.00;;;3.50;;
78750;SDS011;68070;50.954;11.060;2023-05-01T20:11:55;6.30;;;4.20;;
78750;SDS011;68070;50.954;11.060;2023-05-01T20:14:39;4.90;;;3.80;;
78750;SDS011;68070;50.954;11.060;2023-05-01T20:17:24;6.90;;;3.60;;
78750;SDS011;68070;50.954;11.060;2023-05-01T20:20:08;5.60;;;4.00;;
78750;SDS011;68070;50.954;11.060;2023-05-01T20:22:56;5.20;;;3.50;;
78750;SDS011;68070;50.954;11.060;2023-05-01T20:25:55;5.50;;;3.80;;
78750;SDS011;68070;50.954;11.060;2023-05-01T20:28:40;6.40;;;3.90;;
78750;SDS011;68070;50.954;11.060;2023-05-01T20:31:24;6.80;;;4.00;;
78750;SDS011;68070;50.954;11.060;2023-05-01T20:34:08;4.40;;;3.30;;
78750;SDS011;68070;50.954;11.060;2023-05-01T20:36:53;4.30;;;3.00;;
78750;SDS011;68070;50.954;11.060;2023-05-01T20:39:37;4.50;;;3.40;;
78750;SDS011;68070;50.954;11.060;2023-05-01T20:42:21;6.70;;;3.70;;
78750;SDS011;68070;50.954;11.060;2023-05-01T20:45:06;6.00;;;3.10;;
78750;SDS011;68070;50.954;11.060;2023-05-01T20:47:51;5.70;;;4.10;;
78750;SDS011;68070;50.954;11.060;2023-05-01T20:50:37;3.80;;;2.90;;
78750;SDS011;68070;50.954;11.060;2023-05-01T20:53:24;8.40;;;3.90;;
78750;SDS011;68070;50.954;11.060;2023-05-01T20:56:09;5.10;;;3.20;;
78750;SDS011;68070;50.954;11.060;2023-05-01T20:58:55;4.70;;;3.30;;
78750;SDS011;68070;50.954;11.060;2023-05-01T21:01:40;4.70;;;2.70;;
78750;SDS011;68070;50.954;11.060;2023-05-01T21:04:24;5.50;;;2.90;;
78750;SDS011;68070;50.954;11.060;2023-05-01T21:07:08;5.00;;;3.70;;
78750;SDS011;68070;50.954;11.060;2023-05-01T21:09:53;3.40;;;2.80;;
78750;SDS011;68070;50.954;11.060;2023-05-01T21:12:37;4.50;;;3.00;;
78750;SDS011;68070;50.954;11.060;2023-05-01T21:15:23;4.00;;;3.10;;
78750;SDS011;68070;50.954;11.060;2023-05-01T21:18:08;3.90;;;3.00;;
78750;SDS011;68070;50.954;11.060;2023-05-01T21:20:55;5.60;;;3.30;;
78750;SDS011;68070;50.954;11.060;2023-05-01T21:23:48;4.40;;;3.40;;
78750;SDS011;68070;50.954;11.060;2023-05-01T21:26:35;5.20;;;3.70;;
78750;SDS011;68070;50.954;11.060;2023-05-01T21:29:19;5.90;;;3.70;;
78750;SDS011;68070;50.954;11.060;2023-05-01T21:32:04;5.00;;;3.40;;
78750;SDS011;68070;50.954;11.060;2023-05-01T21:34:51;5.20;;;3.60;;
78750;SDS011;68070;50.954;11.060;2023-05-01T21:37:35;5.10;;;3.50;;
78750;SDS011;68070;50.954;11.060;2023-05-01T21:40:20;3.80;;;3.10;;
78750;SDS011;68070;50.954;11.060;2023-05-01T21:43:04;7.10;;;3.80;;
78750;SDS011;68070;50.954;11.060;2023-05-01T21:45:50;5.60;;;3.20;;
78750;SDS011;68070;50.954;11.060;2023-05-01T21:48:34;7.20;;;3.80;;
78750;SDS011;68070;50.954;11.060;2023-05-01T21:51:25;5.30;;;3.60;;
78750;SDS011;68070;50.954;11.060;2023-05-01T21:54:11;4.10;;;2.80;;
78750;SDS011;68070;50.954;11.060;2023-05-01T21:56:59;4.20;;;2.90;;
78750;SDS011;68070;50.954;11.060;2023-05-01T21:59:45;5.00;;;3.00;;
78750;SDS011;68070;50.954;11.060;2023-05-01T22:02:34;8.30;;;2.70;;
78750;SDS011;68070;50.954;11.060;2023-05-01T22:05:23;6.10;;;3.60;;
78750;SDS011;68070;50.954;11.060;2023-05-01T22:08:08;3.90;;;3.20;;
78750;SDS011;68070;50.954;11.060;2023-05-01T22:10:53;5.20;;;3.60;;
78750;SDS011;68070;50.954;11.060;2023-05-01T22:13:37;4.60;;;3.40;;
78750;SDS011;68070;50.954;11.060;2023-05-01T22:16:21;4.30;;;3.10;;
78750;SDS011;68070;50.954;11.060;2023-05-01T22:19:06;4.40;;;2.60;;
78750;SDS011;68070;50.954;11.060;2023-05-01T22:21:50;3.90;;;2.80;;
78750;SDS011;68070;50.954;11.060;2023-05-01T22:24:34;4.60;;;3.50;;
78750;SDS011;68070;50.954;11.060;2023-05-01T22:27:19;5.10;;;3.70;;
78750;SDS011;68070;50.954;11.060;2023-05-01T22:30:05;4.30;;;2.60;;
78750;SDS011;68070;50.954;11.060;2023-05-01T22:32:50;5.40;;;3.20;;
78750;SDS011;68070;50.954;11.060;2023-05-01T22:35:34;4.60;;;2.80;;
78750;SDS011;68070;50.954;11.060;2023-05-01T22:38:19;3.80;;;2.30;;
78750;SDS011;68070;50.954;11.060;2023-05-01T22:41:03;6.70;;;3.30;;
78750;SDS011;68070;50.954;11.060;2023-05-01T22:43:48;4.60;;;2.90;;
78750;SDS011;68070;50.954;11.060;2023-05-01T22:46:32;3.90;;;2.60;;
78750;SDS011;68070;50.954;11.060;2023-05-01T22:49:17;3.20;;;2.10;;
78750;SDS011;68070;50.954;11.060;2023-05-01T22:52:02;5.70;;;3.10;;
78750;SDS011;68070;50.954;11.060;2023-05-01T22:54:47;4.70;;;3.40;;
78750;SDS011;68070;50.954;11.060;2023-05-01T22:57:31;4.20;;;3.00;;
78750;SDS011;68070;50.954;11.060;2023-05-01T23:00:15;4.40;;;3.20;;
78750;SDS011;68070;50.954;11.060;2023-05-01T23:02:59;3.30;;;2.70;;
78750;SDS011;68070;50.954;11.060;2023-05-01T23:05:44;4.60;;;3.20;;
78750;SDS011;68070;50.954;11.060;2023-05-01T23:08:28;5.00;;;3.00;;
78750;SDS011;68070;50.954;11.060;2023-05-01T23:11:14;6.10;;;3.00;;
78750;SDS011;68070;50.954;11.060;2023-05-01T23:14:04;4.20;;;2.80;;
78750;SDS011;68070;50.954;11.060;2023-05-01T23:16:50;5.10;;;3.10;;
78750;SDS011;68070;50.954;11.060;2023-05-01T23:19:34;5.90;;;3.30;;
78750;SDS011;68070;50.954;11.060;2023-05-01T23:22:19;3.40;;;2.40;;
78750;SDS011;68070;50.954;11.060;2023-05-01T23:25:05;3.70;;;2.60;;
78750;SDS011;68070;50.954;11.060;2023-05-01T23:27:53;4.90;;;2.90;;
78750;SDS011;68070;50.954;11.060;2023-05-01T23:30:39;4.80;;;2.80;;
78750;SDS011;68070;50.954;11.060;2023-05-01T23:33:24;6.30;;;4.10;;
78750;SDS011;68070;50.954;11.060;2023-05-01T23:36:09;5.20;;;3.30;;
78750;SDS011;68070;50.954;11.060;2023-05-01T23:38:55;3.80;;;3.40;;
78750;SDS011;68070;50.954;11.060;2023-05-01T23:41:39;5.30;;;3.60;;
78750;SDS011;68070;50.954;11.060;2023-05-01T23:44:24;6.80;;;3.30;;
78750;SDS011;68070;50.954;11.060;2023-05-01T23:47:08;4.40;;;3.30;;
78750;SDS011;68070;50.954;11.060;2023-05-01T23:49:53;5.10;;;3.10;;
78750;SDS011;68070;50.954;11.060;2023-05-01T23:52:38;3.80;;;2.80;;
78750;SDS011;68070;50.954;11.060;2023-05-01T23:55:23;3.90;;;3.20;;
78750;SDS011;68070;50.954;11.060;2023-05-01T23:58:07;5.80;;;3.70;;
